Wauconda, Illinois
Current Conditions -  °F | °C
As of 4:26 PM on Sunday 23 Nov 2014 (Local Time) from KPWK Reporting Station
Light Rain Light Rain  
Wind Chill: 50°   Ceiling: 700
Heat Index: 50°   Visibility: 4mi
Dew Point: 48°   Wind: 6mph
Humidity: 93%   Direction: 130°SE
Pressure: 29.45"   Gusts: NA
Location:  42.26°N, 88.14°W
Report Text: KPWK 232226Z 13005KT 4SM -RA BR OVC007 10/09 A2945 RMK AO2 CIG 005V009 P0004 T01000089
Loading
Personal Weather Stations






























Interactive Weather Map New forecast layout! Learn more

10-Day Weather Forecast

Advertisements
Track Severe Weather on mobile